Terminal Aerodrome Forecast
Issued by NWS

Home | Current Version | Previous Version | Text Only | Print | Product List | Glossary On
Versions: 1 2 3 4 5 6 7 8 9 10 11 12 13 14 15 16 17 18
000
FTUS41 KPBZ 290520
TAFAGC
TAF
KAGC 290520Z 2906/3006 15004KT P6SM -TSRA OVC050CB
     FM290900 18003KT P6SM VCSH OVC050 WS020/23035KT
      TEMPO 2909/2913 OVC025
     FM291500 24008KT P6SM VCTS OVC035CB
     FM291800 25007KT 3SM TSRA OVC030CB
     FM292100 28006KT P6SM OVC040=

USA.gov is the U.S. government's official web portal to all federal, state and local government web resources and services.